createdAt,value
2022-10-31T00:00:48.323Z,94402.38
2022-10-31T00:03:15.738Z,94399.63
2022-10-31T00:05:47.938Z,94398.88
2022-10-31T00:08:15.317Z,94399.25
2022-10-31T00:10:43.026Z,94399.63
2022-10-31T00:13:11.028Z,94405.88
2022-10-31T00:15:39.811Z,94404.72
2022-10-31T00:18:08.049Z,94403.53
2022-10-31T00:20:35.437Z,94403.91
2022-10-31T00:23:03.511Z,94401.16
2022-10-31T00:25:35.030Z,94404.66
2022-10-31T00:28:02.154Z,94400.75
2022-10-31T00:30:29.095Z,94398.81
2022-10-31T00:32:55.864Z,94402.31
2022-10-31T00:35:22.704Z,94406.56
2022-10-31T00:37:49.271Z,94405.38
2022-10-31T00:40:15.907Z,94399.50
2022-10-31T00:42:42.600Z,94400.66
2022-10-31T00:45:10.784Z,94402.22
2022-10-31T00:47:38.084Z,94403.78
2022-10-31T00:50:09.346Z,94396.38
2022-10-31T00:52:35.967Z,94404.16
2022-10-31T00:55:02.732Z,94400.25
2022-10-31T00:57:29.369Z,94397.50
2022-10-31T00:59:55.999Z,94400.25
2022-10-31T01:02:22.823Z,94406.06
2022-10-31T01:04:49.554Z,94401.41
2022-10-31T01:07:16.231Z,94400.22
2022-10-31T01:09:42.833Z,94402.09
2022-10-31T01:12:09.627Z,94401.69
2022-10-31T01:14:36.320Z,94395.38
2022-10-31T01:17:03.016Z,94397.25
2022-10-31T01:19:29.843Z,94394.59
2022-10-31T01:21:56.479Z,94396.97
2022-10-31T01:24:23.139Z,94393.06
2022-10-31T01:26:49.759Z,94394.66
2022-10-31T01:29:16.454Z,94391.56
2022-10-31T01:31:43.108Z,94390.31
2022-10-31T01:34:14.665Z,94392.16
2022-10-31T01:36:42.108Z,94394.06
2022-10-31T01:39:12.231Z,94384.38
2022-10-31T01:41:42.458Z,94384.00
2022-10-31T01:44:14.767Z,94390.28
2022-10-31T01:46:47.775Z,94383.28
2022-10-31T01:49:19.364Z,94391.81
2022-10-31T01:52:15.010Z,94389.47
2022-10-31T01:54:46.635Z,94382.44
2022-10-31T01:57:15.819Z,94387.00
2022-10-31T01:59:50.279Z,94382.34
2022-10-31T02:02:19.618Z,94380.78
2022-10-31T02:04:48.432Z,94381.94
2022-10-31T02:07:19.338Z,94383.88
2022-10-31T02:09:48.641Z,94378.00
2022-10-31T02:12:16.911Z,94386.59
2022-10-31T02:14:43.647Z,94381.06
2022-10-31T02:17:10.334Z,94377.56
2022-10-31T02:19:49.730Z,94383.06
2022-10-31T02:22:40.119Z,94377.97
2022-10-31T02:25:27.327Z,94376.31
2022-10-31T02:27:59.917Z,94374.44
2022-10-31T02:30:38.342Z,94372.78
2022-10-31T02:33:10.787Z,94361.88
2022-10-31T02:35:51.144Z,94361.91
2022-10-31T02:39:09.009Z,94360.22
2022-10-31T02:41:41.383Z,94367.25
2022-10-31T02:44:23.077Z,94357.50
2022-10-31T02:46:53.853Z,94361.03
2022-10-31T02:49:42.334Z,94358.56
2022-10-31T02:52:18.825Z,94361.25
2022-10-31T02:54:47.372Z,94358.19
2022-10-31T02:57:15.900Z,94358.91
2022-10-31T02:59:48.541Z,94353.88
2022-10-31T03:02:20.934Z,94359.75
2022-10-31T03:04:57.945Z,94360.97
2022-10-31T03:07:43.333Z,94357.06
2022-10-31T03:10:19.509Z,94354.38
2022-10-31T03:13:11.735Z,94355.50
2022-10-31T03:15:52.705Z,94355.03
2022-10-31T03:18:25.950Z,94358.56
2022-10-31T03:21:06.784Z,94358.16
2022-10-31T03:23:36.521Z,94348.84
2022-10-31T03:26:06.145Z,94352.69
2022-10-31T03:28:44.359Z,94353.72
2022-10-31T03:31:13.712Z,94358.03
2022-10-31T03:33:43.392Z,94350.66
2022-10-31T03:36:12.941Z,94346.63
2022-10-31T03:38:41.751Z,94346.91
2022-10-31T03:41:14.228Z,94342.28
2022-10-31T03:43:47.246Z,94346.66
2022-10-31T03:46:13.961Z,94346.63
2022-10-31T03:48:40.635Z,94341.78
2022-10-31T03:51:25.771Z,94335.00
2022-10-31T03:54:14.208Z,94337.78
2022-10-31T03:57:03.837Z,94348.72
2022-10-31T03:59:37.622Z,94344.09
2022-10-31T04:02:09.278Z,94337.06
2022-10-31T04:04:37.935Z,94339.00
2022-10-31T04:07:07.620Z,94344.91
2022-10-31T04:09:37.755Z,94338.28
2022-10-31T04:12:09.558Z,94333.25
2022-10-31T04:14:40.122Z,94332.06
2022-10-31T04:17:11.421Z,94334.84
2022-10-31T04:19:38.080Z,94339.47
2022-10-31T04:22:05.071Z,94328.16
2022-10-31T04:24:31.714Z,94335.91
2022-10-31T04:26:58.842Z,94329.28
2022-10-31T04:29:25.440Z,94326.16
2022-10-31T04:31:52.137Z,94323.09
2022-10-31T04:34:18.735Z,94319.59
2022-10-31T04:36:46.327Z,94318.00
2022-10-31T04:39:12.898Z,94312.56
2022-10-31T04:41:39.523Z,94317.22
2022-10-31T04:44:06.827Z,94319.50
2022-10-31T04:46:33.463Z,94316.00
2022-10-31T04:49:00.095Z,94318.00
2022-10-31T04:51:26.689Z,94315.63
2022-10-31T04:53:53.272Z,94312.41
2022-10-31T04:56:19.958Z,94313.50
2022-10-31T04:58:46.555Z,94314.28
2022-10-31T05:01:13.898Z,94315.75
2022-10-31T05:03:40.623Z,94311.91
2022-10-31T05:06:08.034Z,94309.19
2022-10-31T05:08:34.727Z,94307.25
2022-10-31T05:11:04.419Z,94306.41
2022-10-31T05:13:31.938Z,94303.69
2022-10-31T05:15:58.578Z,94305.97
2022-10-31T05:18:25.235Z,94304.06
2022-10-31T05:20:51.885Z,94301.34
2022-10-31T05:23:18.498Z,94303.25
2022-10-31T05:25:45.082Z,94309.09
2022-10-31T05:28:11.687Z,94300.50
2022-10-31T05:30:38.298Z,94295.47
2022-10-31T05:33:04.880Z,94292.72
2022-10-31T05:35:33.366Z,94291.19
2022-10-31T05:38:00.718Z,94291.13
2022-10-31T05:40:28.358Z,94287.19
2022-10-31T05:42:57.280Z,94280.47
2022-10-31T05:45:24.330Z,94278.19
2022-10-31T05:47:56.189Z,94284.88
2022-10-31T05:50:23.901Z,94282.16
2022-10-31T05:52:57.136Z,94279.84
2022-10-31T05:55:23.949Z,94281.41
2022-10-31T05:57:50.553Z,94279.06
2022-10-31T06:00:17.344Z,94285.31
2022-10-31T06:02:43.925Z,94287.22
2022-10-31T06:05:10.617Z,94281.38
2022-10-31T06:07:37.560Z,94277.53
2022-10-31T06:10:06.897Z,94281.78
2022-10-31T06:12:38.396Z,94282.91
2022-10-31T06:15:06.881Z,94273.50
2022-10-31T06:17:34.960Z,94286.19
2022-10-31T06:20:02.118Z,94281.63
2022-10-31T06:22:29.107Z,94281.25
2022-10-31T06:24:55.780Z,94277.91
2022-10-31T06:27:22.661Z,94276.50
2022-10-31T06:29:49.301Z,94278.38
2022-10-31T06:32:16.600Z,94284.66
2022-10-31T06:34:44.058Z,94284.06
2022-10-31T06:37:13.005Z,94275.59
2022-10-31T06:39:39.627Z,94275.69
2022-10-31T06:42:06.226Z,94277.78
2022-10-31T06:44:33.382Z,94267.97
2022-10-31T06:47:00.135Z,94268.47
2022-10-31T06:49:26.745Z,94270.84
2022-10-31T06:51:53.439Z,94267.09
2022-10-31T06:54:20.075Z,94267.44
2022-10-31T06:56:48.121Z,94268.00
2022-10-31T06:59:15.685Z,94265.25
2022-10-31T07:01:42.588Z,94269.63
2022-10-31T07:04:12.656Z,94259.91
2022-10-31T07:06:39.469Z,94256.34
2022-10-31T07:09:06.252Z,94259.41
2022-10-31T07:11:32.873Z,94262.34
2022-10-31T07:13:59.514Z,94265.41
2022-10-31T07:16:26.188Z,94258.34
2022-10-31T07:18:52.904Z,94263.88
2022-10-31T07:21:19.564Z,94264.84
2022-10-31T07:23:49.085Z,94258.53
2022-10-31T07:26:15.831Z,94269.94
2022-10-31T07:28:42.454Z,94268.63
2022-10-31T07:31:09.045Z,94269.41
2022-10-31T07:33:35.644Z,94270.16
2022-10-31T07:36:02.221Z,94280.03
2022-10-31T07:38:28.881Z,94278.22
2022-10-31T07:40:55.518Z,94284.34
2022-10-31T07:43:22.488Z,94277.56
2022-10-31T07:45:53.539Z,94281.50
2022-10-31T07:48:20.778Z,94282.00
2022-10-31T07:50:47.740Z,94285.28
2022-10-31T07:53:15.663Z,94285.34
2022-10-31T07:55:42.814Z,94284.19
2022-10-31T07:58:12.965Z,94280.50
2022-10-31T08:00:42.119Z,94282.22
2022-10-31T08:03:11.809Z,94285.06
2022-10-31T08:05:39.268Z,94279.66
2022-10-31T08:08:06.079Z,94281.16
2022-10-31T08:10:34.172Z,94278.13
2022-10-31T08:13:10.092Z,94280.97
2022-10-31T08:15:39.126Z,94284.97
2022-10-31T08:18:07.188Z,94289.06
2022-10-31T08:20:34.124Z,94288.06
2022-10-31T08:23:03.422Z,94282.38
2022-10-31T08:25:35.358Z,94291.28
2022-10-31T08:28:06.115Z,94281.88
2022-10-31T08:30:35.476Z,94275.69
2022-10-31T08:33:16.500Z,94274.94
2022-10-31T08:35:43.473Z,94265.00
2022-10-31T08:38:12.315Z,94266.88
2022-10-31T08:40:39.529Z,94261.63
2022-10-31T08:43:17.919Z,94262.28
2022-10-31T08:45:48.241Z,94257.34
2022-10-31T08:48:16.894Z,94262.72
2022-10-31T08:50:45.123Z,94258.97
2022-10-31T08:53:17.182Z,94254.38
2022-10-31T08:55:45.532Z,94255.16
2022-10-31T08:58:15.131Z,94252.69
2022-10-31T09:00:42.509Z,94250.28
2022-10-31T09:03:15.871Z,94238.63
2022-10-31T09:05:42.891Z,94243.97
2022-10-31T09:08:15.757Z,94235.25
2022-10-31T09:10:44.121Z,94234.00
2022-10-31T09:13:16.198Z,94233.66
2022-10-31T09:15:44.954Z,94226.25
2022-10-31T09:18:13.357Z,94228.72
2022-10-31T09:20:41.563Z,94227.63
2022-10-31T09:23:11.632Z,94223.38
2022-10-31T09:25:38.907Z,94225.50
2022-10-31T09:28:07.621Z,94217.47
2022-10-31T09:30:36.104Z,94227.75
2022-10-31T09:33:05.317Z,94225.34
2022-10-31T09:35:32.626Z,94229.28
2022-10-31T09:38:01.708Z,94228.75
2022-10-31T09:40:35.144Z,94225.66
2022-10-31T09:43:34.281Z,94232.34
2022-10-31T09:46:27.583Z,94226.63
2022-10-31T09:49:05.413Z,94219.63
2022-10-31T09:51:35.883Z,94220.63
2022-10-31T09:54:14.585Z,94218.94
2022-10-31T09:56:41.467Z,94220.41
2022-10-31T09:59:20.108Z,94215.66
2022-10-31T10:01:56.223Z,94224.50
2022-10-31T10:04:41.640Z,94210.81
2022-10-31T10:07:20.385Z,94205.44
2022-10-31T10:09:47.410Z,94208.06
2022-10-31T10:12:29.980Z,94198.94
2022-10-31T10:15:24.715Z,94196.19
2022-10-31T10:18:06.153Z,94193.75
2022-10-31T10:21:07.468Z,94191.44
2022-10-31T10:23:55.794Z,94187.59
2022-10-31T10:26:27.440Z,94190.38
2022-10-31T10:29:22.251Z,94185.50
2022-10-31T10:31:52.620Z,94184.63
2022-10-31T10:34:27.409Z,94180.94
2022-10-31T10:36:56.685Z,94182.22
2022-10-31T10:39:41.521Z,94176.59
2022-10-31T10:42:34.949Z,94176.59
2022-10-31T10:45:33.424Z,94171.34
2022-10-31T10:48:10.779Z,94169.53
2022-10-31T10:50:42.561Z,94163.97
2022-10-31T10:53:50.011Z,94154.84
2022-10-31T10:56:32.120Z,94161.16
2022-10-31T10:58:59.053Z,94159.41
2022-10-31T11:01:26.293Z,94141.72
2022-10-31T11:03:52.907Z,94146.88
2022-10-31T11:06:26.695Z,94146.06
2022-10-31T11:08:54.297Z,94146.50
2022-10-31T11:11:26.825Z,94137.44
2022-10-31T11:14:01.087Z,94143.31
2022-10-31T11:16:27.744Z,94130.75
2022-10-31T11:18:54.918Z,94138.88
2022-10-31T11:21:26.652Z,94132.41
2022-10-31T11:24:11.667Z,94138.41
2022-10-31T11:26:40.319Z,94133.50
2022-10-31T11:29:14.565Z,94130.72
2022-10-31T11:31:41.683Z,94133.38
2022-10-31T11:34:35.474Z,94130.66
2022-10-31T11:37:17.099Z,94131.28
2022-10-31T11:39:54.404Z,94126.19
2022-10-31T11:42:37.606Z,94133.13
2022-10-31T11:45:15.380Z,94119.78
2022-10-31T11:47:47.321Z,94124.38
2022-10-31T11:50:22.911Z,94122.22
2022-10-31T11:52:50.579Z,94115.91
2022-10-31T11:55:39.259Z,94110.50
2022-10-31T11:58:20.326Z,94107.81
2022-10-31T12:00:54.142Z,94105.41
2022-10-31T12:03:23.698Z,94102.19
2022-10-31T12:06:20.589Z,94099.78
2022-10-31T12:08:47.664Z,94103.25
2022-10-31T12:11:38.782Z,94111.06
2022-10-31T12:14:14.187Z,94100.59
2022-10-31T12:16:51.893Z,94089.31
2022-10-31T12:19:36.022Z,94096.72
2022-10-31T12:22:20.876Z,94096.16
2022-10-31T12:25:06.695Z,94091.50
2022-10-31T12:27:41.979Z,94085.69
2022-10-31T12:30:21.108Z,94087.25
2022-10-31T12:33:12.299Z,94085.22
2022-10-31T12:35:56.227Z,94075.53
2022-10-31T12:38:40.379Z,94072.97
2022-10-31T12:41:37.412Z,94065.00
2022-10-31T12:44:16.836Z,94055.84
2022-10-31T12:47:01.056Z,94064.25
2022-10-31T12:49:45.642Z,94057.50
2022-10-31T12:52:28.003Z,94047.88
2022-10-31T12:55:20.671Z,94041.09
2022-10-31T12:57:53.592Z,94032.44
2022-10-31T13:00:22.615Z,94027.34
2022-10-31T13:03:12.046Z,94018.28
2022-10-31T13:05:42.071Z,94015.34
2022-10-31T13:08:17.310Z,94003.84
2022-10-31T13:11:33.382Z,94005.91
2022-10-31T13:14:19.597Z,93999.00
2022-10-31T13:16:48.769Z,93997.22
2022-10-31T13:19:23.282Z,93995.25
2022-10-31T13:22:13.999Z,93981.03
2022-10-31T13:24:45.370Z,93986.84
2022-10-31T13:27:39.918Z,93979.84
2022-10-31T13:30:17.416Z,93981.38
2022-10-31T13:33:14.977Z,93974.34
2022-10-31T13:35:41.557Z,93974.66
2022-10-31T13:38:31.885Z,93962.06
2022-10-31T13:41:03.320Z,93969.72
2022-10-31T13:43:40.911Z,93965.00
2022-10-31T13:46:27.063Z,93963.97
2022-10-31T13:48:53.782Z,93959.78
2022-10-31T13:51:36.044Z,93964.09
2022-10-31T13:54:20.172Z,93958.16
2022-10-31T13:56:51.317Z,93954.72
2022-10-31T13:59:22.096Z,93958.22
2022-10-31T14:01:58.284Z,93968.00
2022-10-31T14:04:29.116Z,93965.69
2022-10-31T14:07:09.008Z,93964.66
2022-10-31T14:10:21.237Z,93962.25
2022-10-31T14:12:49.855Z,93959.66
2022-10-31T14:15:20.909Z,93955.19
2022-10-31T14:17:53.462Z,93955.16
2022-10-31T14:20:20.606Z,93954.22
2022-10-31T14:22:47.325Z,93957.81
2022-10-31T14:25:36.224Z,93945.38
2022-10-31T14:28:19.829Z,93948.72
2022-10-31T14:30:58.619Z,93948.97
2022-10-31T14:33:28.766Z,93947.66
2022-10-31T14:36:07.080Z,93943.69
2022-10-31T14:39:01.726Z,93944.09
2022-10-31T14:42:25.447Z,93942.75
2022-10-31T14:45:23.457Z,93943.97
2022-10-31T14:48:17.228Z,93942.31
2022-10-31T14:50:50.168Z,93942.91
2022-10-31T14:53:30.366Z,93941.84
2022-10-31T14:56:01.498Z,93947.34
2022-10-31T14:58:47.227Z,93950.88
2022-10-31T15:01:35.915Z,93943.00
2022-10-31T15:04:23.592Z,93943.66
2022-10-31T15:06:58.852Z,93936.19
2022-10-31T15:09:31.567Z,93933.97
2022-10-31T15:12:15.767Z,93926.66
2022-10-31T15:14:42.367Z,93920.53
2022-10-31T15:17:12.555Z,93920.66
2022-10-31T15:19:39.855Z,93920.06
2022-10-31T15:22:06.672Z,93920.50
2022-10-31T15:24:38.423Z,93921.84
2022-10-31T15:27:05.893Z,93916.59
2022-10-31T15:29:32.542Z,93928.25
2022-10-31T15:32:01.526Z,93933.28
2022-10-31T15:34:40.377Z,93927.78
2022-10-31T15:37:15.689Z,93927.28
2022-10-31T15:39:43.811Z,93928.09
2022-10-31T15:42:24.790Z,93928.59
2022-10-31T15:45:06.027Z,93920.34
2022-10-31T15:47:33.838Z,93928.25
2022-10-31T15:50:02.790Z,93925.28
2022-10-31T15:52:36.041Z,93923.03
2022-10-31T15:55:17.581Z,93911.59
2022-10-31T15:57:48.693Z,93917.13
2022-10-31T16:00:24.830Z,93914.56
2022-10-31T16:03:02.228Z,93911.94
2022-10-31T16:05:38.236Z,93911.38
2022-10-31T16:08:05.773Z,93910.28
2022-10-31T16:10:36.224Z,93920.09
2022-10-31T16:13:04.015Z,93918.25
2022-10-31T16:15:30.880Z,93916.69
2022-10-31T16:18:01.437Z,93917.09
2022-10-31T16:20:32.923Z,93911.78
2022-10-31T16:23:00.495Z,93916.44
2022-10-31T16:25:29.753Z,93912.38
2022-10-31T16:28:05.233Z,93923.19
2022-10-31T16:30:42.789Z,93917.22
2022-10-31T16:33:25.406Z,93926.03
2022-10-31T16:35:56.116Z,93934.81
2022-10-31T16:38:31.072Z,93926.09
2022-10-31T16:40:57.800Z,93930.59
2022-10-31T16:43:24.991Z,93929.13
2022-10-31T16:45:52.992Z,93930.75
2022-10-31T16:48:22.437Z,93931.53
2022-10-31T16:50:50.599Z,93932.00
2022-10-31T16:53:18.419Z,93926.72
2022-10-31T16:56:04.825Z,93935.63
2022-10-31T16:58:36.052Z,93922.28
2022-10-31T17:01:05.748Z,93921.50
2022-10-31T17:03:32.507Z,93927.38
2022-10-31T17:05:59.108Z,93934.78
2022-10-31T17:08:26.237Z,93932.50
2022-10-31T17:10:55.478Z,93928.22
2022-10-31T17:13:29.996Z,93926.44
2022-10-31T17:15:59.848Z,93925.28
2022-10-31T17:18:27.830Z,93932.50
2022-10-31T17:21:02.602Z,93923.53
2022-10-31T17:23:29.931Z,93931.31
2022-10-31T17:25:57.074Z,93935.97
2022-10-31T17:28:23.786Z,93936.16
2022-10-31T17:30:50.541Z,93938.63
2022-10-31T17:33:17.669Z,93942.31
2022-10-31T17:35:45.146Z,93937.16
2022-10-31T17:38:12.421Z,93935.88
2022-10-31T17:40:42.133Z,93945.41
2022-10-31T17:43:10.357Z,93942.88
2022-10-31T17:45:39.792Z,93941.75
2022-10-31T17:48:06.910Z,93942.94
2022-10-31T17:50:33.668Z,93934.22
2022-10-31T17:53:00.648Z,93939.97
2022-10-31T17:55:28.411Z,93929.59
2022-10-31T17:57:57.211Z,93935.44
2022-10-31T18:00:24.830Z,93938.31
2022-10-31T18:02:51.774Z,93934.13
2022-10-31T18:05:18.526Z,93926.78
2022-10-31T18:07:45.455Z,93933.88
2022-10-31T18:10:12.181Z,93930.19
2022-10-31T18:12:39.221Z,93926.47
2022-10-31T18:15:06.390Z,93929.50
2022-10-31T18:17:34.912Z,93924.34
2022-10-31T18:20:03.915Z,93927.44
2022-10-31T18:22:30.511Z,93941.59
2022-10-31T18:25:01.814Z,93938.06
2022-10-31T18:27:28.969Z,93932.44
2022-10-31T18:29:55.717Z,93928.63
2022-10-31T18:32:22.340Z,93939.75
2022-10-31T18:34:49.035Z,93938.34
2022-10-31T18:37:15.685Z,93947.19
2022-10-31T18:39:42.331Z,93948.66
2022-10-31T18:42:08.951Z,93940.94
2022-10-31T18:44:35.591Z,93941.25
2022-10-31T18:47:02.227Z,93936.97
2022-10-31T18:49:32.657Z,93935.75
2022-10-31T18:51:59.984Z,93939.34
2022-10-31T18:54:26.692Z,93940.41
2022-10-31T18:56:53.480Z,93945.19
2022-10-31T18:59:20.103Z,93948.59
2022-10-31T19:01:46.951Z,93943.88
2022-10-31T19:04:14.142Z,93952.88
2022-10-31T19:06:40.860Z,93951.72
2022-10-31T19:09:11.052Z,93961.19
2022-10-31T19:11:38.550Z,93969.72
2022-10-31T19:14:06.419Z,93974.03
2022-10-31T19:16:33.025Z,93973.59
2022-10-31T19:19:00.083Z,93974.75
2022-10-31T19:21:27.386Z,93982.06
2022-10-31T19:23:56.141Z,93984.09
2022-10-31T19:26:22.906Z,93985.22
2022-10-31T19:28:49.577Z,93991.84
2022-10-31T19:31:16.354Z,93988.66
2022-10-31T19:33:42.937Z,93984.47
2022-10-31T19:36:14.919Z,93995.22
2022-10-31T19:38:44.539Z,93998.31
2022-10-31T19:41:23.790Z,94001.41
2022-10-31T19:43:50.604Z,94007.69
2022-10-31T19:46:22.718Z,94001.47
2022-10-31T19:49:01.119Z,94010.06
2022-10-31T19:51:28.153Z,94005.97
2022-10-31T19:53:54.866Z,94017.31
2022-10-31T19:56:23.586Z,94007.94
2022-10-31T19:58:51.657Z,94004.06
2022-10-31T20:01:21.503Z,94010.41
2022-10-31T20:03:49.154Z,94003.44
2022-10-31T20:06:23.551Z,94017.72
2022-10-31T20:08:50.614Z,94000.69
2022-10-31T20:11:17.338Z,94006.81
2022-10-31T20:13:44.088Z,94000.91
2022-10-31T20:16:12.642Z,93994.28
2022-10-31T20:18:39.819Z,93985.69
2022-10-31T20:21:18.746Z,93992.34
2022-10-31T20:23:47.373Z,93988.53
2022-10-31T20:26:17.597Z,93990.56
2022-10-31T20:28:44.646Z,93998.00
2022-10-31T20:31:14.080Z,94002.00
2022-10-31T20:33:40.771Z,94004.97
2022-10-31T20:36:08.539Z,94004.84
2022-10-31T20:38:39.759Z,94006.06
2022-10-31T20:41:09.604Z,94005.38
2022-10-31T20:43:36.844Z,93998.41
2022-10-31T20:46:10.650Z,94001.00
2022-10-31T20:48:37.673Z,94003.63
2022-10-31T20:51:07.174Z,94000.47
2022-10-31T20:53:34.312Z,93992.19
2022-10-31T20:56:10.037Z,93997.03
2022-10-31T20:58:38.011Z,93993.94
2022-10-31T21:01:07.931Z,93997.44
2022-10-31T21:03:36.518Z,93994.69
2022-10-31T21:06:05.030Z,93995.63
2022-10-31T21:08:32.814Z,93993.97
2022-10-31T21:11:00.569Z,93988.75
2022-10-31T21:13:31.870Z,93991.06
2022-10-31T21:16:06.662Z,93998.53
2022-10-31T21:18:37.855Z,93993.94
2022-10-31T21:21:14.279Z,93991.59
2022-10-31T21:23:42.917Z,93985.34
2022-10-31T21:26:17.935Z,93982.63
2022-10-31T21:28:44.952Z,93984.13
2022-10-31T21:31:14.646Z,93981.94
2022-10-31T21:33:41.855Z,93983.94
2022-10-31T21:36:09.130Z,93990.13
2022-10-31T21:38:36.296Z,93990.16
2022-10-31T21:41:06.250Z,93987.84
2022-10-31T21:43:36.573Z,93992.47
2022-10-31T21:46:17.602Z,93993.22
2022-10-31T21:48:45.448Z,93994.38
2022-10-31T21:51:24.027Z,93995.13
2022-10-31T21:54:09.897Z,94001.78
2022-10-31T21:56:36.904Z,93993.88
2022-10-31T21:59:05.100Z,93997.03
2022-10-31T22:01:32.086Z,93995.47
2022-10-31T22:03:59.374Z,93997.06
2022-10-31T22:06:27.327Z,93988.06
2022-10-31T22:08:54.403Z,93982.84
2022-10-31T22:11:21.849Z,93982.06
2022-10-31T22:13:49.691Z,93976.78
2022-10-31T22:16:18.867Z,93981.50
2022-10-31T22:18:46.244Z,93980.06
2022-10-31T22:21:18.252Z,93990.50
2022-10-31T22:23:53.216Z,93981.06
2022-10-31T22:26:19.947Z,93976.75
2022-10-31T22:28:49.859Z,93976.81
2022-10-31T22:31:18.877Z,93981.06
2022-10-31T22:33:46.817Z,93974.78
2022-10-31T22:36:16.857Z,93972.03
2022-10-31T22:38:44.681Z,93966.97
2022-10-31T22:41:16.976Z,93968.81
2022-10-31T22:43:43.979Z,93970.44
2022-10-31T22:46:20.517Z,93962.31
2022-10-31T22:48:49.954Z,93957.19
2022-10-31T22:51:21.928Z,93958.31
2022-10-31T22:53:49.073Z,93965.69
2022-10-31T22:56:19.115Z,93966.09
2022-10-31T22:58:46.659Z,93958.34
2022-10-31T23:01:15.028Z,93969.72
2022-10-31T23:03:42.447Z,93973.63
2022-10-31T23:06:12.440Z,93973.25
2022-10-31T23:08:39.511Z,93973.81
2022-10-31T23:11:48.244Z,93978.97
2022-10-31T23:14:20.758Z,93975.41
2022-10-31T23:16:55.914Z,93980.06
2022-10-31T23:19:31.617Z,93985.88
2022-10-31T23:22:04.061Z,93977.69
2022-10-31T23:24:41.739Z,93974.97
2022-10-31T23:27:17.570Z,93977.34
2022-10-31T23:29:57.348Z,93981.69
2022-10-31T23:32:25.830Z,93980.50
2022-10-31T23:34:57.358Z,93982.56
2022-10-31T23:37:26.895Z,93979.78
2022-10-31T23:39:53.802Z,93968.75
2022-10-31T23:42:21.034Z,93976.22
2022-10-31T23:44:47.917Z,93974.66
2022-10-31T23:47:15.170Z,93976.97
2022-10-31T23:49:41.976Z,93980.47
2022-10-31T23:52:09.265Z,93982.03
2022-10-31T23:54:36.298Z,93973.94
2022-10-31T23:57:03.377Z,93978.28
2022-10-31T23:59:30.574Z,93980.59
